sensor_id;sensor_type;location;lat;lon;timestamp;P1;durP1;ratioP1;P2;durP2;ratioP2
63189;SDS011;49286;44.460;26.114;2023-01-01T00:00:15;83.40;;;63.83;;
63189;SDS011;49286;44.460;26.114;2023-01-01T00:02:41;89.00;;;65.55;;
63189;SDS011;49286;44.460;26.114;2023-01-01T00:05:06;68.70;;;44.97;;
63189;SDS011;49286;44.460;26.114;2023-01-01T00:07:32;91.32;;;68.88;;
63189;SDS011;49286;44.460;26.114;2023-01-01T00:09:57;86.68;;;59.92;;
63189;SDS011;49286;44.460;26.114;2023-01-01T00:12:42;82.80;;;59.90;;
63189;SDS011;49286;44.460;26.114;2023-01-01T00:15:07;93.57;;;69.05;;
63189;SDS011;49286;44.460;26.114;2023-01-01T00:17:33;88.75;;;68.53;;
63189;SDS011;49286;44.460;26.114;2023-01-01T00:19:58;68.68;;;41.50;;
63189;SDS011;49286;44.460;26.114;2023-01-01T00:22:24;75.00;;;46.05;;
63189;SDS011;49286;44.460;26.114;2023-01-01T00:24:50;80.15;;;67.03;;
63189;SDS011;49286;44.460;26.114;2023-01-01T00:27:15;83.22;;;65.57;;
63189;SDS011;49286;44.460;26.114;2023-01-01T00:29:41;67.65;;;43.78;;
63189;SDS011;49286;44.460;26.114;2023-01-01T00:32:06;62.45;;;39.42;;
63189;SDS011;49286;44.460;26.114;2023-01-01T00:34:32;100.30;;;72.85;;
63189;SDS011;49286;44.460;26.114;2023-01-01T00:36:57;75.57;;;45.40;;
63189;SDS011;49286;44.460;26.114;2023-01-01T00:39:22;95.82;;;66.82;;
63189;SDS011;49286;44.460;26.114;2023-01-01T00:41:48;101.05;;;47.83;;
63189;SDS011;49286;44.460;26.114;2023-01-01T00:44:14;112.05;;;72.50;;
63189;SDS011;49286;44.460;26.114;2023-01-01T00:46:39;70.95;;;45.55;;
63189;SDS011;49286;44.460;26.114;2023-01-01T00:49:05;65.72;;;40.95;;
63189;SDS011;49286;44.460;26.114;2023-01-01T00:51:31;89.93;;;65.53;;
63189;SDS011;49286;44.460;26.114;2023-01-01T00:53:56;79.63;;;62.45;;
63189;SDS011;49286;44.460;26.114;2023-01-01T00:56:22;85.05;;;41.08;;
63189;SDS011;49286;44.460;26.114;2023-01-01T00:58:47;66.47;;;41.95;;
63189;SDS011;49286;44.460;26.114;2023-01-01T01:01:13;61.90;;;38.08;;
63189;SDS011;49286;44.460;26.114;2023-01-01T01:03:38;63.05;;;39.80;;
63189;SDS011;49286;44.460;26.114;2023-01-01T01:08:30;84.13;;;58.10;;
63189;SDS011;49286;44.460;26.114;2023-01-01T01:11:07;63.85;;;41.75;;
63189;SDS011;49286;44.460;26.114;2023-01-01T01:13:39;57.80;;;36.63;;
63189;SDS011;49286;44.460;26.114;2023-01-01T01:16:09;80.07;;;56.80;;
63189;SDS011;49286;44.460;26.114;2023-01-01T01:18:48;57.50;;;40.13;;
63189;SDS011;49286;44.460;26.114;2023-01-01T01:21:16;65.03;;;38.97;;
63189;SDS011;49286;44.460;26.114;2023-01-01T01:23:43;84.15;;;59.58;;
63189;SDS011;49286;44.460;26.114;2023-01-01T01:26:19;60.55;;;42.25;;
63189;SDS011;49286;44.460;26.114;2023-01-01T01:28:51;75.88;;;57.95;;
63189;SDS011;49286;44.460;26.114;2023-01-01T01:31:18;67.32;;;40.20;;
63189;SDS011;49286;44.460;26.114;2023-01-01T01:33:45;63.90;;;36.97;;
63189;SDS011;49286;44.460;26.114;2023-01-01T01:36:11;50.28;;;35.78;;
63189;SDS011;49286;44.460;26.114;2023-01-01T01:38:38;54.78;;;36.80;;
63189;SDS011;49286;44.460;26.114;2023-01-01T01:41:04;61.88;;;38.10;;
63189;SDS011;49286;44.460;26.114;2023-01-01T01:48:50;87.70;;;60.05;;
63189;SDS011;49286;44.460;26.114;2023-01-01T01:51:31;62.55;;;41.13;;
63189;SDS011;49286;44.460;26.114;2023-01-01T01:54:04;60.25;;;37.97;;
63189;SDS011;49286;44.460;26.114;2023-01-01T01:56:37;69.13;;;41.45;;
63189;SDS011;49286;44.460;26.114;2023-01-01T01:59:16;61.25;;;40.70;;
63189;SDS011;49286;44.460;26.114;2023-01-01T02:01:44;82.45;;;58.80;;
63189;SDS011;49286;44.460;26.114;2023-01-01T02:04:10;63.33;;;41.17;;
63189;SDS011;49286;44.460;26.114;2023-01-01T02:06:37;59.55;;;37.05;;
63189;SDS011;49286;44.460;26.114;2023-01-01T02:09:04;89.82;;;62.45;;
63189;SDS011;49286;44.460;26.114;2023-01-01T02:11:31;57.25;;;38.90;;
63189;SDS011;49286;44.460;26.114;2023-01-01T02:13:58;61.80;;;37.53;;
63189;SDS011;49286;44.460;26.114;2023-01-01T02:16:27;57.08;;;40.15;;
63189;SDS011;49286;44.460;26.114;2023-01-01T02:22:03;67.78;;;40.30;;
63189;SDS011;49286;44.460;26.114;2023-01-01T02:24:58;66.97;;;39.38;;
63189;SDS011;49286;44.460;26.114;2023-01-01T02:27:51;56.80;;;37.35;;
63189;SDS011;49286;44.460;26.114;2023-01-01T02:30:25;67.22;;;38.47;;
63189;SDS011;49286;44.460;26.114;2023-01-01T02:33:05;58.08;;;38.45;;
63189;SDS011;49286;44.460;26.114;2023-01-01T02:35:38;56.63;;;37.25;;
63189;SDS011;49286;44.460;26.114;2023-01-01T02:38:15;62.67;;;37.85;;
63189;SDS011;49286;44.460;26.114;2023-01-01T02:40:46;67.18;;;39.28;;
63189;SDS011;49286;44.460;26.114;2023-01-01T02:43:15;55.42;;;38.53;;
63189;SDS011;49286;44.460;26.114;2023-01-01T02:45:41;56.80;;;38.03;;
63189;SDS011;49286;44.460;26.114;2023-01-01T02:48:52;55.20;;;35.78;;
63189;SDS011;49286;44.460;26.114;2023-01-01T02:51:08;52.47;;;35.15;;
63189;SDS011;49286;44.460;26.114;2023-01-01T02:53:36;58.17;;;39.78;;
63189;SDS011;49286;44.460;26.114;2023-01-01T02:56:20;57.10;;;36.53;;
63189;SDS011;49286;44.460;26.114;2023-01-01T02:59:08;53.08;;;37.05;;
63189;SDS011;49286;44.460;26.114;2023-01-01T03:07:25;68.05;;;35.40;;
63189;SDS011;49286;44.460;26.114;2023-01-01T03:10:14;66.88;;;37.00;;
63189;SDS011;49286;44.460;26.114;2023-01-01T03:12:48;71.60;;;36.20;;
63189;SDS011;49286;44.460;26.114;2023-01-01T03:15:59;57.58;;;37.13;;
63189;SDS011;49286;44.460;26.114;2023-01-01T03:18:35;70.05;;;43.17;;
63189;SDS011;49286;44.460;26.114;2023-01-01T03:21:08;65.18;;;40.65;;
63189;SDS011;49286;44.460;26.114;2023-01-01T03:23:36;76.68;;;42.78;;
63189;SDS011;49286;44.460;26.114;2023-01-01T03:26:06;69.88;;;39.72;;
63189;SDS011;49286;44.460;26.114;2023-01-01T03:28:35;57.03;;;37.33;;
63189;SDS011;49286;44.460;26.114;2023-01-01T03:31:10;58.72;;;35.42;;
63189;SDS011;49286;44.460;26.114;2023-01-01T03:33:42;56.33;;;35.83;;
63189;SDS011;49286;44.460;26.114;2023-01-01T03:38:44;65.28;;;38.90;;
63189;SDS011;49286;44.460;26.114;2023-01-01T03:41:15;70.47;;;42.47;;
63189;SDS011;49286;44.460;26.114;2023-01-01T03:43:52;61.42;;;39.50;;
63189;SDS011;49286;44.460;26.114;2023-01-01T03:46:29;63.25;;;38.67;;
63189;SDS011;49286;44.460;26.114;2023-01-01T03:48:58;60.90;;;39.40;;
63189;SDS011;49286;44.460;26.114;2023-01-01T03:54:11;70.28;;;36.75;;
63189;SDS011;49286;44.460;26.114;2023-01-01T03:56:54;66.57;;;39.90;;
63189;SDS011;49286;44.460;26.114;2023-01-01T03:59:30;67.78;;;39.60;;
63189;SDS011;49286;44.460;26.114;2023-01-01T04:02:03;55.22;;;35.38;;
63189;SDS011;49286;44.460;26.114;2023-01-01T04:04:33;69.45;;;39.95;;
63189;SDS011;49286;44.460;26.114;2023-01-01T04:06:59;56.10;;;38.13;;
63189;SDS011;49286;44.460;26.114;2023-01-01T04:09:27;67.60;;;37.97;;
63189;SDS011;49286;44.460;26.114;2023-01-01T04:11:55;61.10;;;38.75;;
63189;SDS011;49286;44.460;26.114;2023-01-01T04:14:36;63.75;;;41.00;;
63189;SDS011;49286;44.460;26.114;2023-01-01T04:17:04;62.60;;;38.38;;
63189;SDS011;49286;44.460;26.114;2023-01-01T04:19:30;53.83;;;36.33;;
63189;SDS011;49286;44.460;26.114;2023-01-01T04:21:56;59.92;;;40.67;;
63189;SDS011;49286;44.460;26.114;2023-01-01T04:24:23;56.17;;;40.15;;
63189;SDS011;49286;44.460;26.114;2023-01-01T04:26:49;65.20;;;38.03;;
63189;SDS011;49286;44.460;26.114;2023-01-01T04:29:15;53.08;;;37.22;;
63189;SDS011;49286;44.460;26.114;2023-01-01T04:31:41;64.90;;;40.47;;
63189;SDS011;49286;44.460;26.114;2023-01-01T04:34:07;68.55;;;40.15;;
63189;SDS011;49286;44.460;26.114;2023-01-01T04:36:32;62.25;;;39.05;;
63189;SDS011;49286;44.460;26.114;2023-01-01T04:38:58;72.95;;;42.17;;
63189;SDS011;49286;44.460;26.114;2023-01-01T04:41:24;62.90;;;36.20;;
63189;SDS011;49286;44.460;26.114;2023-01-01T04:43:49;58.08;;;37.17;;
63189;SDS011;49286;44.460;26.114;2023-01-01T04:46:15;59.53;;;36.33;;
63189;SDS011;49286;44.460;26.114;2023-01-01T04:48:42;59.95;;;38.03;;
63189;SDS011;49286;44.460;26.114;2023-01-01T04:51:08;63.70;;;39.45;;
63189;SDS011;49286;44.460;26.114;2023-01-01T04:53:35;55.15;;;38.65;;
63189;SDS011;49286;44.460;26.114;2023-01-01T04:56:04;62.70;;;36.03;;
63189;SDS011;49286;44.460;26.114;2023-01-01T04:58:35;64.55;;;38.97;;
63189;SDS011;49286;44.460;26.114;2023-01-01T05:01:01;74.65;;;43.05;;
63189;SDS011;49286;44.460;26.114;2023-01-01T05:03:28;52.92;;;39.10;;
63189;SDS011;49286;44.460;26.114;2023-01-01T05:08:27;68.45;;;41.30;;
63189;SDS011;49286;44.460;26.114;2023-01-01T05:10:58;62.85;;;42.83;;
63189;SDS011;49286;44.460;26.114;2023-01-01T05:13:24;66.45;;;41.28;;
63189;SDS011;49286;44.460;26.114;2023-01-01T05:15:50;59.10;;;38.25;;
63189;SDS011;49286;44.460;26.114;2023-01-01T05:18:15;59.05;;;43.35;;
63189;SDS011;49286;44.460;26.114;2023-01-01T05:20:41;64.82;;;41.92;;
63189;SDS011;49286;44.460;26.114;2023-01-01T05:23:06;56.10;;;38.90;;
63189;SDS011;49286;44.460;26.114;2023-01-01T05:25:32;55.60;;;40.15;;
63189;SDS011;49286;44.460;26.114;2023-01-01T05:27:57;73.28;;;44.45;;
63189;SDS011;49286;44.460;26.114;2023-01-01T05:30:22;63.65;;;43.38;;
63189;SDS011;49286;44.460;26.114;2023-01-01T05:32:48;65.00;;;40.60;;
63189;SDS011;49286;44.460;26.114;2023-01-01T05:35:13;70.88;;;44.30;;
63189;SDS011;49286;44.460;26.114;2023-01-01T05:37:39;64.57;;;41.75;;
63189;SDS011;49286;44.460;26.114;2023-01-01T05:40:05;68.60;;;42.42;;
63189;SDS011;49286;44.460;26.114;2023-01-01T05:42:31;65.43;;;42.88;;
63189;SDS011;49286;44.460;26.114;2023-01-01T05:44:56;65.47;;;41.13;;
63189;SDS011;49286;44.460;26.114;2023-01-01T05:47:21;71.03;;;42.70;;
63189;SDS011;49286;44.460;26.114;2023-01-01T05:49:47;71.80;;;42.83;;
63189;SDS011;49286;44.460;26.114;2023-01-01T05:52:12;54.20;;;40.47;;
63189;SDS011;49286;44.460;26.114;2023-01-01T05:54:38;75.20;;;44.33;;
63189;SDS011;49286;44.460;26.114;2023-01-01T05:57:03;61.53;;;41.88;;
63189;SDS011;49286;44.460;26.114;2023-01-01T05:59:28;61.60;;;39.47;;
63189;SDS011;49286;44.460;26.114;2023-01-01T06:01:54;71.32;;;41.80;;
63189;SDS011;49286;44.460;26.114;2023-01-01T06:04:19;65.10;;;38.75;;
63189;SDS011;49286;44.460;26.114;2023-01-01T06:06:45;53.65;;;37.30;;
63189;SDS011;49286;44.460;26.114;2023-01-01T06:09:10;63.78;;;39.20;;
63189;SDS011;49286;44.460;26.114;2023-01-01T06:11:36;62.15;;;39.03;;
63189;SDS011;49286;44.460;26.114;2023-01-01T06:14:01;61.13;;;39.28;;
63189;SDS011;49286;44.460;26.114;2023-01-01T06:16:28;64.88;;;43.58;;
63189;SDS011;49286;44.460;26.114;2023-01-01T06:18:56;74.57;;;36.65;;
63189;SDS011;49286;44.460;26.114;2023-01-01T06:21:23;62.85;;;39.75;;
63189;SDS011;49286;44.460;26.114;2023-01-01T06:23:50;68.15;;;35.60;;
63189;SDS011;49286;44.460;26.114;2023-01-01T06:26:17;65.03;;;42.38;;
63189;SDS011;49286;44.460;26.114;2023-01-01T06:28:44;63.85;;;38.67;;
63189;SDS011;49286;44.460;26.114;2023-01-01T06:31:11;61.00;;;38.80;;
63189;SDS011;49286;44.460;26.114;2023-01-01T06:33:38;62.83;;;39.58;;
63189;SDS011;49286;44.460;26.114;2023-01-01T06:36:05;64.75;;;40.88;;
63189;SDS011;49286;44.460;26.114;2023-01-01T06:38:33;65.38;;;42.38;;
63189;SDS011;49286;44.460;26.114;2023-01-01T06:41:01;60.88;;;39.40;;
63189;SDS011;49286;44.460;26.114;2023-01-01T06:43:28;64.50;;;42.40;;
63189;SDS011;49286;44.460;26.114;2023-01-01T06:45:59;61.40;;;37.90;;
63189;SDS011;49286;44.460;26.114;2023-01-01T06:50:56;58.40;;;40.47;;
63189;SDS011;49286;44.460;26.114;2023-01-01T06:53:23;67.53;;;39.38;;
63189;SDS011;49286;44.460;26.114;2023-01-01T06:55:51;70.82;;;45.70;;
63189;SDS011;49286;44.460;26.114;2023-01-01T06:58:17;75.85;;;40.83;;
63189;SDS011;49286;44.460;26.114;2023-01-01T07:00:43;59.67;;;37.83;;
63189;SDS011;49286;44.460;26.114;2023-01-01T07:03:09;69.75;;;39.97;;
63189;SDS011;49286;44.460;26.114;2023-01-01T07:05:35;59.28;;;37.67;;
63189;SDS011;49286;44.460;26.114;2023-01-01T07:08:00;73.30;;;39.35;;
63189;SDS011;49286;44.460;26.114;2023-01-01T07:10:26;72.00;;;48.25;;
63189;SDS011;49286;44.460;26.114;2023-01-01T07:12:51;58.90;;;42.05;;
63189;SDS011;49286;44.460;26.114;2023-01-01T07:15:16;60.72;;;41.50;;
63189;SDS011;49286;44.460;26.114;2023-01-01T07:17:42;61.58;;;38.15;;
63189;SDS011;49286;44.460;26.114;2023-01-01T07:20:08;67.47;;;40.08;;
63189;SDS011;49286;44.460;26.114;2023-01-01T07:22:34;76.07;;;38.65;;
63189;SDS011;49286;44.460;26.114;2023-01-01T07:25:01;66.93;;;43.90;;
63189;SDS011;49286;44.460;26.114;2023-01-01T07:27:27;59.85;;;38.03;;
63189;SDS011;49286;44.460;26.114;2023-01-01T07:29:52;79.65;;;42.85;;
63189;SDS011;49286;44.460;26.114;2023-01-01T07:32:18;73.97;;;41.35;;
63189;SDS011;49286;44.460;26.114;2023-01-01T07:34:43;58.95;;;36.33;;
63189;SDS011;49286;44.460;26.114;2023-01-01T07:37:08;63.70;;;40.17;;
63189;SDS011;49286;44.460;26.114;2023-01-01T07:39:34;63.13;;;41.70;;
63189;SDS011;49286;44.460;26.114;2023-01-01T07:41:59;62.17;;;39.17;;
63189;SDS011;49286;44.460;26.114;2023-01-01T07:44:25;70.72;;;40.28;;
63189;SDS011;49286;44.460;26.114;2023-01-01T07:46:59;65.03;;;40.85;;
63189;SDS011;49286;44.460;26.114;2023-01-01T07:49:26;79.82;;;42.47;;
63189;SDS011;49286;44.460;26.114;2023-01-01T07:51:52;59.53;;;38.45;;
63189;SDS011;49286;44.460;26.114;2023-01-01T07:54:17;57.47;;;36.50;;
63189;SDS011;49286;44.460;26.114;2023-01-01T07:56:43;59.70;;;37.92;;
63189;SDS011;49286;44.460;26.114;2023-01-01T07:59:08;53.65;;;34.13;;
63189;SDS011;49286;44.460;26.114;2023-01-01T08:01:34;76.88;;;57.75;;
63189;SDS011;49286;44.460;26.114;2023-01-01T08:04:00;69.40;;;39.42;;
63189;SDS011;49286;44.460;26.114;2023-01-01T08:06:26;73.20;;;55.70;;
63189;SDS011;49286;44.460;26.114;2023-01-01T08:08:51;67.65;;;42.78;;
63189;SDS011;49286;44.460;26.114;2023-01-01T08:11:17;57.50;;;38.15;;
63189;SDS011;49286;44.460;26.114;2023-01-01T08:13:43;63.28;;;37.55;;
63189;SDS011;49286;44.460;26.114;2023-01-01T08:16:08;80.65;;;57.85;;
63189;SDS011;49286;44.460;26.114;2023-01-01T08:18:34;68.50;;;51.53;;
63189;SDS011;49286;44.460;26.114;2023-01-01T08:20:59;60.03;;;39.58;;
63189;SDS011;49286;44.460;26.114;2023-01-01T08:23:25;80.85;;;54.25;;
63189;SDS011;49286;44.460;26.114;2023-01-01T08:25:50;84.20;;;55.10;;
63189;SDS011;49286;44.460;26.114;2023-01-01T08:28:16;68.30;;;38.70;;
63189;SDS011;49286;44.460;26.114;2023-01-01T08:30:41;73.25;;;55.38;;
63189;SDS011;49286;44.460;26.114;2023-01-01T08:33:07;72.18;;;52.45;;
63189;SDS011;49286;44.460;26.114;2023-01-01T08:35:33;85.65;;;55.53;;
63189;SDS011;49286;44.460;26.114;2023-01-01T08:38:01;57.45;;;40.47;;
63189;SDS011;49286;44.460;26.114;2023-01-01T08:40:27;79.28;;;51.38;;
63189;SDS011;49286;44.460;26.114;2023-01-01T08:42:52;70.20;;;53.75;;
63189;SDS011;49286;44.460;26.114;2023-01-01T08:45:18;79.07;;;56.13;;
63189;SDS011;49286;44.460;26.114;2023-01-01T08:47:43;76.05;;;57.33;;
63189;SDS011;49286;44.460;26.114;2023-01-01T08:50:09;78.88;;;53.80;;
63189;SDS011;49286;44.460;26.114;2023-01-01T08:52:34;75.63;;;56.42;;
63189;SDS011;49286;44.460;26.114;2023-01-01T08:55:00;68.03;;;50.47;;
63189;SDS011;49286;44.460;26.114;2023-01-01T08:57:28;79.18;;;52.60;;
63189;SDS011;49286;44.460;26.114;2023-01-01T08:59:54;74.75;;;52.97;;
63189;SDS011;49286;44.460;26.114;2023-01-01T09:02:20;75.47;;;56.75;;
63189;SDS011;49286;44.460;26.114;2023-01-01T09:04:45;75.22;;;57.08;;
63189;SDS011;49286;44.460;26.114;2023-01-01T09:07:11;73.25;;;52.05;;
63189;SDS011;49286;44.460;26.114;2023-01-01T09:09:36;64.70;;;50.20;;
63189;SDS011;49286;44.460;26.114;2023-01-01T09:12:02;74.53;;;52.42;;
63189;SDS011;49286;44.460;26.114;2023-01-01T09:14:30;73.50;;;52.67;;
63189;SDS011;49286;44.460;26.114;2023-01-01T09:16:56;75.57;;;53.58;;
63189;SDS011;49286;44.460;26.114;2023-01-01T09:19:21;72.30;;;52.00;;
63189;SDS011;49286;44.460;26.114;2023-01-01T09:21:47;69.57;;;53.05;;
63189;SDS011;49286;44.460;26.114;2023-01-01T09:24:12;77.97;;;54.08;;
63189;SDS011;49286;44.460;26.114;2023-01-01T09:26:38;81.60;;;53.72;;
63189;SDS011;49286;44.460;26.114;2023-01-01T09:29:03;75.47;;;51.97;;
63189;SDS011;49286;44.460;26.114;2023-01-01T09:31:29;76.28;;;53.97;;
63189;SDS011;49286;44.460;26.114;2023-01-01T09:33:54;71.50;;;51.80;;
63189;SDS011;49286;44.460;26.114;2023-01-01T09:38:51;79.45;;;52.42;;
63189;SDS011;49286;44.460;26.114;2023-01-01T09:41:31;73.47;;;54.05;;
63189;SDS011;49286;44.460;26.114;2023-01-01T09:44:02;73.82;;;52.80;;
63189;SDS011;49286;44.460;26.114;2023-01-01T09:46:29;78.25;;;54.63;;
63189;SDS011;49286;44.460;26.114;2023-01-01T09:48:56;85.90;;;57.05;;
63189;SDS011;49286;44.460;26.114;2023-01-01T09:51:25;74.55;;;54.90;;
63189;SDS011;49286;44.460;26.114;2023-01-01T09:53:58;73.43;;;54.75;;
63189;SDS011;49286;44.460;26.114;2023-01-01T09:56:28;75.40;;;57.13;;
63189;SDS011;49286;44.460;26.114;2023-01-01T09:58:55;69.45;;;52.55;;
63189;SDS011;49286;44.460;26.114;2023-01-01T10:15:19;83.00;;;55.17;;
63189;SDS011;49286;44.460;26.114;2023-01-01T10:17:52;68.57;;;47.75;;
63189;SDS011;49286;44.460;26.114;2023-01-01T10:20:23;73.80;;;50.28;;
63189;SDS011;49286;44.460;26.114;2023-01-01T10:25:28;89.05;;;49.33;;
63189;SDS011;49286;44.460;26.114;2023-01-01T10:28:01;63.08;;;48.40;;
63189;SDS011;49286;44.460;26.114;2023-01-01T10:30:30;62.13;;;45.58;;
63189;SDS011;49286;44.460;26.114;2023-01-01T10:32:56;58.85;;;42.47;;
63189;SDS011;49286;44.460;26.114;2023-01-01T10:35:23;59.65;;;45.40;;
63189;SDS011;49286;44.460;26.114;2023-01-01T10:37:56;66.90;;;45.17;;
63189;SDS011;49286;44.460;26.114;2023-01-01T10:40:23;63.65;;;43.22;;
63189;SDS011;49286;44.460;26.114;2023-01-01T10:42:51;65.63;;;45.33;;
63189;SDS011;49286;44.460;26.114;2023-01-01T10:45:29;56.35;;;42.75;;
63189;SDS011;49286;44.460;26.114;2023-01-01T10:50:46;63.63;;;42.63;;
63189;SDS011;49286;44.460;26.114;2023-01-01T10:55:49;64.07;;;42.47;;
63189;SDS011;49286;44.460;26.114;2023-01-01T11:03:55;66.22;;;44.97;;
63189;SDS011;49286;44.460;26.114;2023-01-01T11:08:51;56.60;;;41.83;;
63189;SDS011;49286;44.460;26.114;2023-01-01T11:11:29;56.72;;;43.15;;
63189;SDS011;49286;44.460;26.114;2023-01-01T11:14:00;61.80;;;44.78;;
63189;SDS011;49286;44.460;26.114;2023-01-01T11:16:32;66.22;;;42.50;;
63189;SDS011;49286;44.460;26.114;2023-01-01T11:19:04;70.82;;;47.47;;
63189;SDS011;49286;44.460;26.114;2023-01-01T11:21:32;61.55;;;46.63;;
63189;SDS011;49286;44.460;26.114;2023-01-01T11:24:18;58.97;;;43.42;;
63189;SDS011;49286;44.460;26.114;2023-01-01T11:26:45;59.47;;;42.00;;
63189;SDS011;49286;44.460;26.114;2023-01-01T11:31:40;54.97;;;39.78;;
63189;SDS011;49286;44.460;26.114;2023-01-01T11:36:49;54.28;;;37.90;;
63189;SDS011;49286;44.460;26.114;2023-01-01T11:39:19;54.10;;;38.08;;
63189;SDS011;49286;44.460;26.114;2023-01-01T11:41:51;44.90;;;36.88;;
63189;SDS011;49286;44.460;26.114;2023-01-01T11:44:34;47.47;;;37.72;;
63189;SDS011;49286;44.460;26.114;2023-01-01T11:47:05;48.15;;;38.30;;
63189;SDS011;49286;44.460;26.114;2023-01-01T11:49:40;48.00;;;35.28;;
63189;SDS011;49286;44.460;26.114;2023-01-01T11:55:21;53.88;;;37.58;;
63189;SDS011;49286;44.460;26.114;2023-01-01T11:58:01;56.55;;;34.17;;
63189;SDS011;49286;44.460;26.114;2023-01-01T12:00:34;44.45;;;31.67;;
63189;SDS011;49286;44.460;26.114;2023-01-01T12:03:09;42.75;;;32.72;;
63189;SDS011;49286;44.460;26.114;2023-01-01T12:05:53;42.05;;;31.25;;
63189;SDS011;49286;44.460;26.114;2023-01-01T12:09:01;57.17;;;35.42;;
63189;SDS011;49286;44.460;26.114;2023-01-01T12:11:45;29.55;;;24.52;;
63189;SDS011;49286;44.460;26.114;2023-01-01T12:16:56;42.40;;;33.45;;
63189;SDS011;49286;44.460;26.114;2023-01-01T12:22:24;41.60;;;31.15;;
63189;SDS011;49286;44.460;26.114;2023-01-01T12:24:50;41.38;;;31.63;;
63189;SDS011;49286;44.460;26.114;2023-01-01T12:29:46;35.40;;;27.30;;
63189;SDS011;49286;44.460;26.114;2023-01-01T12:35:40;41.95;;;29.95;;
63189;SDS011;49286;44.460;26.114;2023-01-01T12:41:36;35.65;;;29.73;;
63189;SDS011;49286;44.460;26.114;2023-01-01T12:52:03;39.67;;;30.17;;
63189;SDS011;49286;44.460;26.114;2023-01-01T12:57:44;38.83;;;29.02;;
63189;SDS011;49286;44.460;26.114;2023-01-01T13:00:15;33.75;;;26.25;;
63189;SDS011;49286;44.460;26.114;2023-01-01T13:02:57;49.30;;;35.70;;
63189;SDS011;49286;44.460;26.114;2023-01-01T13:05:39;46.50;;;31.67;;
63189;SDS011;49286;44.460;26.114;2023-01-01T13:08:06;38.08;;;27.42;;
63189;SDS011;49286;44.460;26.114;2023-01-01T13:10:33;42.00;;;28.52;;
63189;SDS011;49286;44.460;26.114;2023-01-01T13:13:02;38.42;;;29.13;;
63189;SDS011;49286;44.460;26.114;2023-01-01T13:18:04;42.78;;;30.42;;
63189;SDS011;49286;44.460;26.114;2023-01-01T13:20:31;36.45;;;26.45;;
63189;SDS011;49286;44.460;26.114;2023-01-01T13:23:02;36.10;;;25.90;;
63189;SDS011;49286;44.460;26.114;2023-01-01T13:25:28;40.20;;;27.17;;
63189;SDS011;49286;44.460;26.114;2023-01-01T13:43:49;36.33;;;25.52;;
63189;SDS011;49286;44.460;26.114;2023-01-01T13:46:15;39.88;;;26.13;;
63189;SDS011;49286;44.460;26.114;2023-01-01T13:51:25;35.30;;;26.80;;
63189;SDS011;49286;44.460;26.114;2023-01-01T14:15:34;35.10;;;25.33;;
63189;SDS011;49286;44.460;26.114;2023-01-01T14:18:03;34.08;;;24.92;;
63189;SDS011;49286;44.460;26.114;2023-01-01T14:20:44;33.63;;;25.02;;
63189;SDS011;49286;44.460;26.114;2023-01-01T14:23:14;37.05;;;25.00;;
63189;SDS011;49286;44.460;26.114;2023-01-01T14:25:41;42.42;;;27.98;;
63189;SDS011;49286;44.460;26.114;2023-01-01T14:28:23;33.20;;;23.98;;
63189;SDS011;49286;44.460;26.114;2023-01-01T14:30:51;39.17;;;26.80;;
63189;SDS011;49286;44.460;26.114;2023-01-01T14:33:22;35.25;;;26.50;;
63189;SDS011;49286;44.460;26.114;2023-01-01T14:35:51;39.60;;;26.75;;
63189;SDS011;49286;44.460;26.114;2023-01-01T14:38:41;40.40;;;28.77;;
63189;SDS011;49286;44.460;26.114;2023-01-01T14:43:44;46.08;;;32.55;;
63189;SDS011;49286;44.460;26.114;2023-01-01T14:46:15;44.00;;;29.55;;
63189;SDS011;49286;44.460;26.114;2023-01-01T14:48:47;39.95;;;24.40;;
63189;SDS011;49286;44.460;26.114;2023-01-01T14:51:18;34.75;;;27.13;;
63189;SDS011;49286;44.460;26.114;2023-01-01T14:53:45;38.53;;;25.20;;
63189;SDS011;49286;44.460;26.114;2023-01-01T14:56:26;43.85;;;27.42;;
63189;SDS011;49286;44.460;26.114;2023-01-01T14:58:57;41.50;;;27.60;;
63189;SDS011;49286;44.460;26.114;2023-01-01T15:01:40;38.80;;;26.88;;
63189;SDS011;49286;44.460;26.114;2023-01-01T15:04:39;37.20;;;27.27;;
63189;SDS011;49286;44.460;26.114;2023-01-01T15:06:58;40.75;;;29.55;;
63189;SDS011;49286;44.460;26.114;2023-01-01T15:09:27;40.03;;;28.65;;
63189;SDS011;49286;44.460;26.114;2023-01-01T15:11:55;39.03;;;27.75;;
63189;SDS011;49286;44.460;26.114;2023-01-01T15:16:59;38.95;;;29.73;;
63189;SDS011;49286;44.460;26.114;2023-01-01T15:19:25;37.83;;;28.88;;
63189;SDS011;49286;44.460;26.114;2023-01-01T15:21:51;36.08;;;28.02;;
63189;SDS011;49286;44.460;26.114;2023-01-01T15:24:17;40.80;;;29.45;;
63189;SDS011;49286;44.460;26.114;2023-01-01T15:31:55;35.20;;;29.63;;
63189;SDS011;49286;44.460;26.114;2023-01-01T15:37:11;39.70;;;29.55;;
63189;SDS011;49286;44.460;26.114;2023-01-01T15:39:44;51.92;;;34.15;;
63189;SDS011;49286;44.460;26.114;2023-01-01T15:47:49;39.22;;;28.10;;
63189;SDS011;49286;44.460;26.114;2023-01-01T15:52:46;45.17;;;30.85;;
63189;SDS011;49286;44.460;26.114;2023-01-01T15:55:16;44.53;;;28.92;;
63189;SDS011;49286;44.460;26.114;2023-01-01T15:57:48;44.85;;;31.35;;
63189;SDS011;49286;44.460;26.114;2023-01-01T16:00:25;43.53;;;30.85;;
63189;SDS011;49286;44.460;26.114;2023-01-01T16:02:54;42.50;;;28.88;;
63189;SDS011;49286;44.460;26.114;2023-01-01T16:05:23;44.63;;;30.05;;
63189;SDS011;49286;44.460;26.114;2023-01-01T16:08:09;41.58;;;30.17;;
63189;SDS011;49286;44.460;26.114;2023-01-01T16:10:34;35.83;;;28.65;;
63189;SDS011;49286;44.460;26.114;2023-01-01T16:13:00;42.50;;;29.13;;
63189;SDS011;49286;44.460;26.114;2023-01-01T16:15:25;46.30;;;29.45;;
63189;SDS011;49286;44.460;26.114;2023-01-01T16:17:51;39.22;;;27.95;;
63189;SDS011;49286;44.460;26.114;2023-01-01T16:20:17;34.25;;;27.55;;
63189;SDS011;49286;44.460;26.114;2023-01-01T16:22:45;40.60;;;30.42;;
63189;SDS011;49286;44.460;26.114;2023-01-01T16:25:14;41.25;;;28.95;;
63189;SDS011;49286;44.460;26.114;2023-01-01T16:27:42;49.20;;;29.73;;
63189;SDS011;49286;44.460;26.114;2023-01-01T16:30:07;51.28;;;28.90;;
63189;SDS011;49286;44.460;26.114;2023-01-01T16:32:35;43.55;;;30.75;;
63189;SDS011;49286;44.460;26.114;2023-01-01T16:35:01;47.63;;;31.45;;
63189;SDS011;49286;44.460;26.114;2023-01-01T16:37:27;39.78;;;29.80;;
63189;SDS011;49286;44.460;26.114;2023-01-01T16:39:52;38.13;;;28.45;;
63189;SDS011;49286;44.460;26.114;2023-01-01T16:42:17;43.60;;;30.15;;
63189;SDS011;49286;44.460;26.114;2023-01-01T16:44:43;43.45;;;30.23;;
63189;SDS011;49286;44.460;26.114;2023-01-01T16:47:09;43.38;;;29.55;;
63189;SDS011;49286;44.460;26.114;2023-01-01T16:49:34;50.58;;;32.72;;
63189;SDS011;49286;44.460;26.114;2023-01-01T16:52:00;43.40;;;31.48;;
63189;SDS011;49286;44.460;26.114;2023-01-01T16:54:27;39.80;;;30.90;;
63189;SDS011;49286;44.460;26.114;2023-01-01T16:56:52;39.90;;;31.10;;